Latest Weather Observations for Latrobe Valley

IDV60801

Issued at 3:32 am EDT Wednesday 22 February 2017 (issued every 30 minutes, with the page automatically refreshed every 10 minutes)

About weather observations | Map of weather stations | Latest weather observations for VIC | Other Formats
Station Details ID: 085280 Name: LATROBE VALLEY AIRPORT Lat: -38.21 Lon: 146.47 Height: 55.7 m
Data from the previous 72 hours. | See also: Recent months at Latrobe Valley
Date/Time
EDT
Temp
°C
App
Temp
°C
Dew
Point
°C
Rel
Hum
%
Delta-T
°C
Wind Press
QNH
hPa
Press
MSL
hPa
Rain since
9am
mm
Dir  Spd
km/h
Gust
km/h
Spd
kts
Gust
kts
22/03:30am 13.0 11.2 10.9 87 1.1 E 11 15 6 8 1018.0 1017.8 0.0
22/03:00am 12.9 11.5 11.0 88 1.0 ESE 9 15 5 8 1018.5 1018.3 0.0
22/02:30am 13.0 11.2 10.9 87 1.1 ESE 11 17 6 9 1018.8 1018.6 0.0
22/02:00am 12.9 11.5 11.0 88 1.0 E 9 13 5 7 1019.1 1018.9 0.0
22/01:30am 12.9 11.1 11.0 88 1.0 E 11 15 6 8 1019.5 1019.3 0.0
22/01:00am 13.0 11.2 10.9 87 1.1 ENE 11 15 6 8 1020.0 1019.8 0.0
22/12:30am 13.2 12.2 10.9 86 1.2 ENE 7 11 4 6 1020.3 1020.1 0.0
22/12:00am 13.9 12.2 11.1 83 1.5 ENE 11 17 6 9 1020.5 1020.3 0.0
 
Date/Time
EDT
Temp
°C
App
Temp
°C
Dew
Point
°C
Rel
Hum
%
Delta-T
°C
Wind Press
QNH
hPa
Press
MSL
hPa
Rain since
9am
mm
Dir  Spd
km/h
Gust
km/h
Spd
kts
Gust
kts
21/11:30pm 14.4 13.1 11.2 81 1.7 ENE 9 15 5 8 1020.6 1020.4 0.0
21/11:00pm 14.8 13.5 11.4 80 1.8 E 9 13 5 7 1020.7 1020.5 0.0
21/10:30pm 15.4 13.4 11.4 77 2.2 ENE 13 19 7 10 1020.9 1020.7 0.0
21/10:00pm 15.7 14.0 11.3 75 2.4 ENE 11 17 6 9 1020.8 1020.6 0.0
21/09:30pm 16.1 14.0 11.3 73 2.6 ENE 13 22 7 12 1020.5 1020.3 0.0
21/09:00pm 16.7 14.2 11.2 70 3.0 ENE 15 24 8 13 1020.1 1019.9 0.0
21/08:30pm 17.5 14.3 11.3 67 3.4 ENE 19 28 10 15 1019.6 1019.4 0.0
21/08:00pm 18.7 15.9 11.5 63 3.9 ENE 17 24 9 13 1019.2 1019.0 0.0
21/07:30pm 22.0 21.4 8.9 43 7.0 ESE 2 6 1 3 1018.6 1018.4 0.0
21/07:00pm 22.6 21.2 9.7 44 7.0 SSW 7 11 4 6 1018.2 1018.0 0.0
21/06:30pm 22.6 20.8 9.4 43 7.1 SSW 9 13 5 7 1018.0 1017.8 0.0
21/06:00pm 22.7 20.8 9.1 42 7.3 SSE 9 17 5 9 1018.0 1017.8 0.0
21/05:30pm 23.2 20.7 9.6 42 7.4 WSW 13 22 7 12 1018.3 1018.1 0.0
21/05:00pm 23.1 20.6 9.8 43 7.2 SW 13 20 7 11 1018.2 1018.0 0.0
21/04:30pm 22.6 19.5 8.7 41 7.4 SW 15 26 8 14 1018.7 1018.5 0.0
21/04:00pm 22.9 19.5 9.3 42 7.3 W 17 26 9 14 1019.0 1018.8 0.0
21/03:30pm 23.0 20.0 9.4 42 7.4 WSW 15 26 8 14 1019.1 1018.9 0.0
21/03:00pm 22.0 18.9 8.9 43 7.0 WNW 15 28 8 15 1019.5 1019.3 0.0
21/02:30pm 21.5 18.6 9.7 47 6.4 SW 15 24 8 13 1019.8 1019.6 0.0
21/02:00pm 20.6 17.4 9.8 50 5.8 SW 17 22 9 12 1020.1 1019.9 0.0
21/01:30pm 20.2 17.6 10.6 54 5.2 WSW 15 24 8 13 1020.6 1020.4 0.0
21/01:00pm 19.4 15.9 10.1 55 5.0 WSW 19 26 10 14 1020.7 1020.5 0.0
21/12:30pm 19.0 16.6 10.0 56 4.8 WSW 13 20 7 11 1020.9 1020.7 0.0
21/12:00pm 18.8 15.1 9.6 55 4.9 W 19 24 10 13 1021.1 1020.9 0.0
21/11:30am 19.0 15.2 9.8 55 4.9 WNW 20 32 11 17 1021.3 1021.1 0.0
21/11:00am 17.7 14.5 9.8 60 4.2 W 17 26 9 14 1021.6 1021.4 0.0
21/10:30am 17.2 13.6 10.6 65 3.5 WNW 20 28 11 15 1021.7 1021.5 0.0
21/10:00am 16.6 12.6 10.5 67 3.2 W 22 28 12 15 1021.5 1021.3 0.0
21/09:30am 15.9 12.5 10.4 70 2.9 WNW 19 24 10 13 1021.4 1021.2 0.0
21/09:00am 14.6 12.2 10.2 75 2.3 WNW 13 20 7 11 1021.1 1020.9 4.2
21/08:30am 13.3 10.0 9.5 78 1.9 WNW 17 22 9 12 1020.8 1020.6 4.2
21/08:00am 12.9 10.7 9.5 80 1.7 WNW 11 17 6 9 1020.5 1020.3 4.2
21/07:30am 12.6 10.1 9.6 82 1.5 WNW 13 17 7 9 1020.0 1019.8 4.2
21/07:00am 12.3 9.8 9.7 84 1.3 NW 13 17 7 9 1019.4 1019.2 4.2
21/06:30am 11.8 9.6 9.4 85 1.2 WNW 11 15 6 8 1018.9 1018.7 4.2
21/06:00am 11.9 9.3 9.5 85 1.2 WNW 13 17 7 9 1018.8 1018.6 4.2
21/05:30am 12.0 9.5 9.6 85 1.2 WNW 13 17 7 9 1018.5 1018.3 4.2
21/05:00am 12.6 9.8 10.0 84 1.3 WNW 15 20 8 11 1018.1 1017.9 4.2
21/04:30am 12.1 9.6 9.7 85 1.2 WNW 13 15 7 8 1018.1 1017.9 4.2
21/04:00am 12.3 9.0 9.7 84 1.3 W 17 19 9 10 1018.1 1017.9 4.2
21/03:30am 11.9 9.7 9.5 85 1.2 WNW 11 15 6 8 1017.9 1017.7 4.2
21/03:00am 12.7 9.8 9.7 82 1.5 WNW 15 20 8 11 1017.7 1017.5 4.2
21/02:30am 13.3 10.1 9.9 80 1.8 WNW 17 24 9 13 1017.6 1017.4 4.2
21/02:00am 13.3 10.1 9.9 80 1.7 W 17 24 9 13 1017.6 1017.4 4.2
21/01:30am 13.1 9.9 10.1 82 1.6 WNW 17 20 9 11 1017.7 1017.5 4.2
21/01:00am 12.7 10.3 10.2 85 1.3 WSW 13 17 7 9 1018.0 1017.8 4.2
21/12:30am 13.2 9.7 10.2 82 1.6 WNW 19 26 10 14 1017.8 1017.6 4.2
21/12:00am 13.5 10.5 10.5 82 1.6 WNW 17 20 9 11 1017.6 1017.4 4.2
 
Date/Time
EDT
Temp
°C
App
Temp
°C
Dew
Point
°C
Rel
Hum
%
Delta-T
°C
Wind Press
QNH
hPa
Press
MSL
hPa
Rain since
9am
mm
Dir  Spd
km/h
Gust
km/h
Spd
kts
Gust
kts
20/11:30pm 13.9 10.3 10.7 81 1.7 WNW 20 28 11 15 1017.6 1017.4 4.2
20/11:00pm 13.6 10.6 10.6 82 1.6 W 17 24 9 13 1017.5 1017.3 4.2
20/10:30pm 14.3 11.5 9.9 75 2.3 WNW 15 20 8 11 1017.3 1017.1 4.0
20/10:00pm 14.3 11.9 9.9 75 2.3 W 13 19 7 10 1017.1 1016.9 4.0
20/09:30pm 14.0 11.5 9.8 76 2.2 WNW 13 17 7 9 1016.8 1016.6 4.0
20/09:00pm 14.6 12.0 9.2 70 2.8 W 13 19 7 10 1016.2 1016.0 4.0
20/08:30pm 15.0 11.0 9.1 68 3.0 W 20 28 11 15 1015.6 1015.4 4.0
20/08:00pm 15.1 11.3 9.7 70 2.8 WSW 20 32 11 17 1015.1 1014.9 4.0
20/07:30pm 15.7 10.8 10.0 69 3.0 WSW 26 32 14 17 1014.5 1014.3 4.0
20/07:00pm 15.3 10.8 10.1 71 2.7 WSW 24 35 13 19 1014.0 1013.8 4.0
20/06:30pm 14.9 9.4 10.7 76 2.2 WSW 30 39 16 21 1013.7 1013.5 4.0
20/06:00pm 16.1 9.7 9.5 65 3.4 WSW 33 48 18 26 1013.3 1013.1 3.6
20/05:36pm 16.1 10.6 9.3 64 3.5 WSW 28 50 15 27 1013.0 1012.9 3.6
20/05:30pm 16.0 11.4 11.0 72 2.7 WSW 26 32 14 17 1012.9 1012.8 3.6
20/05:00pm 17.2 11.6 10.3 64 3.7 W 30 43 16 23 1012.5 1012.4 3.6
20/04:30pm 15.9 9.6 9.8 67 3.2 W 33 46 18 25 1012.4 1012.3 3.6
20/04:00pm 15.7 10.3 10.9 73 2.6 W 30 37 16 20 1012.0 1011.9 3.6
20/03:31pm 14.4 9.4 11.0 80 1.8 WSW 28 46 15 25 1012.1 1012.0 3.4
20/03:30pm 14.7 9.8 11.3 80 1.8 WSW 28 44 15 24 1012.1 1012.0 3.4
20/03:00pm 15.1 11.1 13.0 87 1.2 WNW 26 33 14 18 1011.8 1011.7 3.4
20/02:53pm 13.5 7.8 11.2 86 1.2 W 32 44 17 24 1011.8 1011.7 3.4
20/02:39pm 13.7 7.6 10.5 81 1.7 W 33 44 18 24 1012.0 1011.9 2.8
20/02:30pm 15.8 10.3 10.6 71 2.8 WNW 30 43 16 23 1011.6 1011.5 2.2
20/02:10pm 16.5 10.9 11.4 72 2.8 W 32 43 17 23 1011.3 1011.2 2.2
20/02:00pm 15.4 11.8 13.2 87 1.2 WSW 24 39 13 21 1011.4 1011.3 2.2
20/01:55pm 14.2 9.4 11.5 84 1.4 WSW 28 39 15 21 1011.5 1011.4 2.2
20/01:30pm 15.8 10.5 11.4 75 2.4 WNW 30 43 16 23 1011.2 1011.1 1.4
20/01:08pm 15.9 10.4 13.6 86 1.3 WNW 35 48 19 26 1011.1 1011.0 1.4
20/01:00pm 14.7 8.9 12.7 88 1.1 WNW 35 50 19 27 1011.1 1011.0 1.4
20/12:48pm 13.7 6.3 11.2 85 1.3 WNW 41 54 22 29 1011.0 1010.9 0.8
20/12:36pm 16.1 10.2 11.1 72 2.7 WNW 33 52 18 28 1010.6 1010.5 0.0
20/12:30pm 15.2 9.4 10.8 75 2.3 WNW 32 43 17 23 1010.9 1010.8 0.0
20/12:06pm 17.3 11.4 9.2 59 4.2 W 30 48 16 26 1010.8 1010.7 0.0
20/12:00pm 16.8 9.9 9.0 60 4.0 WSW 35 43 19 23 1010.9 1010.8 0.0
20/11:30am 16.8 10.4 9.5 62 3.8 W 33 43 18 23 1011.0 1010.9 0.0
20/11:00am 15.6 10.2 10.8 73 2.6 WNW 30 39 16 21 1010.7 1010.6 0.0
20/10:30am 15.1 10.4 10.5 74 2.4 W 26 39 14 21 1010.7 1010.6 0.0
20/10:00am 14.5 8.5 10.9 79 1.9 W 33 44 18 24 1010.5 1010.4 0.0
20/09:30am 13.5 9.3 11.2 86 1.2 WNW 24 30 13 16 1010.4 1010.3 0.0
20/09:00am 11.8 7.7 10.2 90 0.8 WNW 22 30 12 16 1010.4 1010.3 8.2
20/08:30am 11.4 6.8 9.7 89 0.9 W 24 32 13 17 1010.2 1010.1 8.0
20/08:00am 11.6 7.4 9.7 88 1.0 WNW 22 32 12 17 1009.7 1009.6 7.6
20/07:30am 10.7 6.3 9.1 90 0.8 WNW 22 30 12 16 1009.4 1009.3 7.6
20/07:00am 10.2 5.3 8.6 90 0.8 WNW 24 32 13 17 1009.3 1009.2 7.6
20/06:30am 10.3 5.4 8.4 88 0.9 WNW 24 33 13 18 1008.7 1008.6 7.6
20/06:00am 10.0 5.0 8.1 88 0.9 WNW 24 33 13 18 1008.4 1008.3 7.6
20/05:32am 9.8 5.8 8.2 90 0.8 WNW 19 24 10 13 1008.2 1008.1 7.6
20/05:30am 9.8 5.6 8.2 90 0.8 WNW 20 28 11 15 1008.2 1008.1 7.6
20/05:12am 9.7 4.4 8.3 91 0.7 NW 26 32 14 17 1008.3 1008.2 6.8
20/05:00am 9.6 5.0 8.2 91 0.7 WNW 22 32 12 17 1008.1 1008.0 6.0
20/04:30am 9.7 4.7 8.1 90 0.8 WNW 24 30 13 16 1008.1 1008.0 5.4
20/04:09am 9.6 5.5 8.0 90 0.8 WNW 19 26 10 14 1008.1 1008.0 5.0
20/04:00am 9.7 5.1 8.1 90 0.8 NW 22 35 12 19 1008.2 1008.1 5.0
20/03:53am 9.6 4.2 8.0 90 0.8 WNW 26 35 14 19 1008.2 1008.1 4.6
20/03:30am 9.7 4.6 7.8 88 0.9 NW 24 30 13 16 1008.2 1008.1 3.8
20/03:00am 9.5 5.8 7.8 89 0.8 WNW 17 24 9 13 1008.2 1008.1 3.2
20/02:30am 9.2 5.8 7.5 89 0.8 WNW 15 20 8 11 1008.2 1008.1 3.2
20/02:00am 9.1 4.7 7.4 89 0.8 NW 20 30 11 16 1008.5 1008.4 3.2
20/01:30am 9.0 4.6 7.5 90 0.7 WNW 20 26 11 14 1008.6 1008.5 3.2
20/01:00am 9.4 4.6 7.5 88 0.9 WNW 22 30 12 16 1008.8 1008.7 3.2
20/12:30am 9.5 5.3 7.3 86 1.0 WNW 19 24 10 13 1009.0 1008.9 3.2
20/12:00am 10.0 5.2 7.4 84 1.2 WNW 22 30 12 16 1009.1 1009.0 3.0
 
Date/Time
EDT
Temp
°C
App
Temp
°C
Dew
Point
°C
Rel
Hum
%
Delta-T
°C
Wind Press
QNH
hPa
Press
MSL
hPa
Rain since
9am
mm
Dir  Spd
km/h
Gust
km/h
Spd
kts
Gust
kts
19/11:30pm 9.9 5.8 7.7 86 1.1 WNW 19 24 10 13 1009.1 1009.0 3.0
19/11:00pm 9.5 5.3 7.4 87 1.0 WNW 19 24 10 13 1009.1 1009.0 3.0
19/10:30pm 9.4 7.2 7.7 89 0.8 WNW 9 13 5 7 1009.2 1009.1 3.0
19/10:00pm 9.0 6.6 7.1 88 0.9 WNW 9 13 5 7 1009.2 1009.1 3.0
19/09:30pm 9.6 6.1 7.4 86 1.0 NW 15 20 8 11 1009.1 1009.0 3.0
19/09:00pm 9.6 6.5 7.4 86 1.0 NW 13 17 7 9 1008.9 1008.8 3.0
19/08:30pm 10.0 5.8 7.6 85 1.2 NW 19 24 10 13 1008.9 1008.8 3.0
19/08:00pm 10.8 6.8 8.4 85 1.2 NW 19 24 10 13 1008.6 1008.5 3.0
19/07:30pm 11.7 8.9 8.4 80 1.6 WNW 13 20 7 11 1008.3 1008.2 2.6
19/07:00pm 12.1 8.8 8.2 77 1.9 W 15 22 8 12 1008.1 1008.0 2.6
19/06:30pm 12.4 9.4 9.2 81 1.6 WNW 15 19 8 10 1007.9 1007.8 2.6
19/06:00pm 11.3 8.5 8.7 84 1.3 WSW 13 17 7 9 1007.6 1007.4 2.6
19/05:42pm 11.1 9.2 9.2 88 1.0 W 9 15 5 8 1007.5 1007.3 2.6
19/05:30pm 10.9 5.4 9.0 88 0.9 WNW 28 46 15 25 1007.9 1007.8 2.4
19/05:23pm 11.7 7.9 8.9 83 1.4 W 19 46 10 25 1008.0 1007.9 2.0
19/05:00pm 13.5 10.8 8.8 73 2.4 WNW 13 17 7 9 1007.3 1007.1 1.0
19/04:30pm 13.6 9.1 8.4 71 2.6 WNW 22 28 12 15 1007.2 1007.0 1.0
19/04:00pm 13.5 9.5 9.0 74 2.3 NW 20 28 11 15 1007.2 1007.0 1.0
19/03:30pm 12.7 8.7 10.6 87 1.1 WNW 22 28 12 15 1007.7 1007.5 1.0
19/03:00pm 13.3 7.2 8.4 72 2.5 WNW 30 39 16 21 1007.8 1007.7 0.2
19/02:30pm 14.1 9.2 8.5 69 2.8 WNW 24 35 13 19 1007.8 1007.7 0.0
19/02:00pm 14.9 8.6 8.8 67 3.1 W 32 41 17 22 1008.0 1007.9 0.0
19/01:30pm 14.4 8.9 9.2 71 2.7 WNW 28 41 15 22 1008.1 1008.0 0.0
19/01:00pm 14.4 9.0 9.6 73 2.5 W 28 37 15 20 1008.1 1008.0 0.0
19/12:30pm 17.1 11.2 7.5 53 4.8 W 28 37 15 20 1008.1 1008.0 0.0
19/12:00pm 18.2 10.9 7.0 48 5.6 WNW 35 46 19 25 1008.2 1008.1 0.0
19/11:30am 18.8 11.5 7.3 47 5.8 WNW 35 50 19 27 1008.4 1008.3 0.0
19/11:00am 17.0 9.2 6.8 51 5.1 WNW 37 50 20 27 1008.5 1008.4 0.0
19/10:30am 16.2 8.7 6.3 52 4.8 WNW 35 46 19 25 1008.8 1008.7 0.0
19/10:00am 15.9 9.4 6.3 53 4.7 WNW 30 41 16 22 1008.8 1008.7 0.0
19/09:30am 15.8 8.8 6.0 52 4.7 WNW 32 43 17 23 1008.9 1008.8 0.0
19/09:08am 14.8 8.5 5.6 54 4.4 WNW 28 46 15 25 1008.9 1008.8 0.0
19/09:00am 14.6 9.1 5.7 55 4.3 WNW 24 35 13 19 1009.1 1009.0 0.0
19/08:30am 14.1 9.6 6.0 58 3.9 W 19 26 10 14 1009.1 1009.0 0.0
19/08:00am 12.5 8.7 5.9 64 3.1 WNW 15 22 8 12 1009.0 1008.9 0.0
19/07:30am 11.1 8.5 6.3 72 2.3 W 9 11 5 6 1009.1 1009.0 0.0
19/07:00am 10.3 7.0 6.3 76 1.9 NW 13 15 7 8 1009.1 1009.0 0.0
19/06:30am 9.1 5.7 6.0 81 1.4 WNW 13 17 7 9 1009.0 1008.9 0.0
19/06:00am 9.3 8.1 6.4 82 1.3 SSW 2 7 1 4 1008.8 1008.7 0.0
19/05:30am 9.0 6.8 6.1 82 1.3 WSW 7 9 4 5 1008.9 1008.8 0.0
19/05:00am 9.1 5.8 6.4 83 1.3 WNW 13 17 7 9 1008.9 1008.8 0.0
19/04:30am 9.1 6.5 6.0 81 1.4 SW 9 11 5 6 1009.2 1009.1 0.0
19/04:00am 9.5 6.9 6.2 80 1.5 W 9 11 5 6 1009.4 1009.3 0.0

Other Formats:

Comma delimited format used in spreadsheet applications
http://www.bom.gov.au/fwo/IDV60801/IDV60801.94891.axf

JavaScript Object Notation format (JSON) in row-major order
http://www.bom.gov.au/fwo/IDV60801/IDV60801.94891.json